Time;durP1;ratioP1;P1;durP2;ratioP2;P2;SDS_P1;SDS_P2;PMS_P1;PMS_P2;Temp;Humidity;BMP_temperature;BMP_pressure;BME280_temperature;BME280_humidity;BME280_pressure;Samples;Min_cycle;Max_cycle;Signal;HPM_P1;HPM_P2
2022/06/21 00:00:11;;;;;;;24.07;9.60;;;12.10;1.00;;;;;;5034512;28;21112;-52
2022/06/21 00:02:37;;;;;;;25.53;9.27;;;12.10;1.00;;;;;;5035042;28;20536;-53
2022/06/21 00:05:05;;;;;;;17.83;8.40;;;12.00;1.00;;;;;;5035421;28;20441;-52
2022/06/21 00:07:31;;;;;;;23.97;8.77;;;12.00;1.00;;;;;;5036245;28;20502;-53
2022/06/21 00:09:57;;;;;;;17.77;8.83;;;11.90;1.00;;;;;;5036035;28;20524;-53
2022/06/21 00:12:23;;;;;;;19.73;7.83;;;11.90;4.80;;;;;;5036937;28;20201;-53
2022/06/21 00:14:49;;;;;;;27.30;8.07;;;11.90;1.00;;;;;;5036593;28;20421;-53
2022/06/21 00:17:18;;;;;;;20.37;8.10;;;11.90;6.50;;;;;;5035903;28;20201;-53
2022/06/21 00:19:44;;;;;;;17.70;8.40;;;11.90;27.40;;;;;;5035425;28;20218;-54
2022/06/21 00:22:15;;;;;;;15.20;7.57;;;11.90;14.20;;;;;;5036744;28;20429;-53
2022/06/21 00:24:41;;;;;;;24.03;8.00;;;11.90;43.90;;;;;;5036461;28;20472;-53
2022/06/21 00:27:18;;;;;;;26.40;8.00;;;11.90;56.30;;;;;;5035643;28;20745;-52
2022/06/21 00:29:45;;;;;;;30.20;8.23;;;11.90;20.00;;;;;;5034915;28;20421;-53
2022/06/21 00:32:14;;;;;;;16.67;7.23;;;11.80;67.00;;;;;;5035111;28;20448;-52
2022/06/21 00:34:42;;;;;;;21.20;8.63;;;11.90;99.90;;;;;;5033117;28;20433;-53
2022/06/21 00:37:14;;;;;;;22.70;7.20;;;11.80;98.90;;;;;;5033027;28;20421;-53
2022/06/21 00:39:39;;;;;;;28.80;7.30;;;11.80;99.90;;;;;;5032748;28;21261;-53
2022/06/21 00:42:37;;;;;;;25.30;8.73;;;11.80;99.90;;;;;;5032697;28;20529;-52
2022/06/21 00:45:27;;;;;;;25.17;7.47;;;11.80;99.90;;;;;;5020322;28;20234;-53
2022/06/21 00:47:56;;;;;;;24.53;7.83;;;11.70;99.90;;;;;;5043055;28;20429;-53
2022/06/21 00:50:26;;;;;;;24.13;8.20;;;11.80;99.90;;;;;;5025391;28;20452;-53
2022/06/21 00:53:11;;;;;;;24.67;7.87;;;11.80;99.90;;;;;;5024094;28;20465;-53
2022/06/21 00:55:51;;;;;;;25.13;8.00;;;11.70;99.90;;;;;;5031239;28;20442;-52
2022/06/21 00:58:20;;;;;;;24.40;8.00;;;11.70;99.90;;;;;;5032420;28;20445;-53
2022/06/21 01:01:03;;;;;;;22.00;8.10;;;11.70;99.90;;;;;;5031539;28;20963;-52
2022/06/21 01:03:46;;;;;;;24.57;7.97;;;11.70;99.90;;;;;;5030433;28;20473;-52
2022/06/21 01:06:21;;;;;;;30.33;7.57;;;11.70;99.90;;;;;;5029890;28;20457;-53
2022/06/21 01:08:55;;;;;;;23.27;10.47;;;11.70;99.90;;;;;;5029867;28;20852;-52
2022/06/21 01:11:27;;;;;;;28.67;8.33;;;11.60;99.90;;;;;;5031088;28;20433;-59
2022/06/21 01:13:57;;;;;;;25.40;8.17;;;11.60;99.90;;;;;;5030943;28;20441;-52
2022/06/21 01:16:25;;;;;;;19.07;7.97;;;11.60;99.90;;;;;;5032607;28;20425;-52
2022/06/21 01:18:51;;;;;;;27.80;9.73;;;11.60;99.90;;;;;;5033070;28;20426;-52
2022/06/21 01:21:18;;;;;;;25.60;8.77;;;11.50;99.90;;;;;;5031520;28;20911;-53
2022/06/21 01:24:07;;;;;;;28.03;8.80;;;11.60;99.90;;;;;;5032813;28;20180;-52
2022/06/21 01:26:50;;;;;;;24.17;8.00;;;11.50;99.90;;;;;;5031179;28;20969;-53
2022/06/21 01:29:20;;;;;;;20.70;8.73;;;11.50;99.90;;;;;;5032083;28;20410;-52
2022/06/21 01:31:49;;;;;;;22.90;9.60;;;11.50;99.90;;;;;;5029887;28;20492;-52
2022/06/21 01:34:21;;;;;;;30.07;9.23;;;11.50;99.90;;;;;;5032820;28;20422;-52
2022/06/21 01:36:52;;;;;;;23.50;8.90;;;11.50;99.90;;;;;;5034518;28;20449;-52
2022/06/21 01:39:23;;;;;;;21.77;8.30;;;11.50;99.90;;;;;;5031915;28;20548;-52
2022/06/21 01:41:56;;;;;;;18.70;7.83;;;11.50;99.90;;;;;;5031157;28;20527;-52
2022/06/21 01:44:31;;;;;;;23.70;9.00;;;11.50;99.90;;;;;;5030756;28;20480;-53
2022/06/21 01:47:02;;;;;;;33.67;9.07;;;11.40;99.90;;;;;;5027188;28;20507;-52
2022/06/21 01:49:30;;;;;;;25.43;9.20;;;11.40;99.90;;;;;;5029477;28;20442;-53
2022/06/21 01:51:59;;;;;;;35.13;9.93;;;11.40;99.90;;;;;;5030446;28;20524;-52
2022/06/21 01:54:32;;;;;;;28.50;9.63;;;11.40;99.90;;;;;;5031944;28;20425;-52
2022/06/21 01:56:57;;;;;;;26.33;10.30;;;11.40;99.90;;;;;;5021836;28;20787;-52
2022/06/21 01:59:33;;;;;;;22.73;9.33;;;11.40;99.90;;;;;;5030713;28;20469;-57
2022/06/21 02:02:08;;;;;;;31.00;9.37;;;11.30;99.90;;;;;;5030630;28;20535;-52
2022/06/21 02:04:43;;;;;;;22.57;8.43;;;11.30;99.90;;;;;;5031035;28;20441;-52
2022/06/21 02:07:17;;;;;;;20.13;8.70;;;11.30;99.90;;;;;;5030901;28;20459;-53
2022/06/21 02:09:48;;;;;;;30.00;8.87;;;11.20;99.90;;;;;;5030865;28;20443;-52
2022/06/21 02:12:14;;;;;;;27.60;9.00;;;11.20;99.90;;;;;;5031230;28;20442;-52
2022/06/21 02:14:45;;;;;;;29.27;9.20;;;11.20;99.90;;;;;;5029851;28;20953;-53
2022/06/21 02:17:18;;;;;;;21.90;8.37;;;11.20;99.90;;;;;;5030138;28;20460;-53
2022/06/21 02:19:51;;;;;;;25.97;9.40;;;11.10;99.90;;;;;;5031457;28;20801;-52
2022/06/21 02:22:21;;;;;;;22.23;8.87;;;11.10;99.90;;;;;;5030656;28;20495;-52
2022/06/21 02:24:47;;;;;;;23.30;8.90;;;11.10;99.90;;;;;;5029904;28;20434;-54
2022/06/21 02:27:16;;;;;;;25.40;7.97;;;11.10;99.90;;;;;;5029993;28;20442;-53
2022/06/21 02:29:44;;;;;;;29.93;9.00;;;11.10;99.90;;;;;;5029887;28;20441;-57
2022/06/21 02:32:37;;;;;;;25.93;8.33;;;11.10;99.90;;;;;;5029073;28;20446;-53
2022/06/21 02:35:31;;;;;;;16.70;7.10;;;11.00;99.90;;;;;;5027314;28;20460;-54
2022/06/21 02:38:00;;;;;;;17.60;7.60;;;11.00;99.90;;;;;;5029693;28;20441;-52
2022/06/21 02:40:30;;;;;;;26.27;7.70;;;11.00;99.90;;;;;;5030187;28;20639;-53
2022/06/21 02:43:02;;;;;;;21.87;7.63;;;11.00;99.90;;;;;;5031306;28;20801;-52
2022/06/21 02:45:49;;;;;;;22.07;7.93;;;11.00;99.90;;;;;;5027379;28;20504;-52
2022/06/21 02:48:20;;;;;;;19.07;7.63;;;11.00;99.90;;;;;;5030646;28;20418;-52
2022/06/21 02:50:51;;;;;;;28.53;8.63;;;11.00;99.90;;;;;;5030419;28;20794;-55
2022/06/21 02:53:32;;;;;;;28.50;8.07;;;11.00;99.90;;;;;;5029728;28;20605;-53
2022/06/21 02:56:03;;;;;;;16.07;6.60;;;11.00;99.90;;;;;;5028806;28;20543;-53
2022/06/21 02:58:37;;;;;;;24.30;7.63;;;11.00;99.90;;;;;;5030569;28;20421;-53
2022/06/21 03:01:05;;;;;;;19.17;8.13;;;11.00;99.90;;;;;;5028725;28;20470;-52
2022/06/21 03:03:33;;;;;;;21.63;6.97;;;10.90;99.90;;;;;;5030076;28;20512;-53
2022/06/21 03:06:01;;;;;;;27.73;7.20;;;10.90;99.90;;;;;;5028108;28;20552;-53
2022/06/21 03:08:30;;;;;;;23.40;7.20;;;11.00;99.90;;;;;;5029520;28;20507;-52
2022/06/21 03:10:56;;;;;;;23.80;8.20;;;11.00;99.90;;;;;;5029419;28;20469;-53
2022/06/21 03:13:26;;;;;;;23.90;7.37;;;11.00;99.90;;;;;;5030401;28;20417;-52
2022/06/21 03:15:56;;;;;;;21.37;6.57;;;11.00;99.90;;;;;;5029189;28;20975;-52
2022/06/21 03:18:25;;;;;;;27.37;7.97;;;11.00;99.90;;;;;;5029383;28;20449;-52
2022/06/21 03:20:52;;;;;;;22.23;6.70;;;11.10;99.90;;;;;;5028599;28;20477;-52
2022/06/21 03:23:19;;;;;;;24.03;7.80;;;11.10;99.90;;;;;;5028776;28;20417;-53
2022/06/21 03:25:51;;;;;;;26.00;6.60;;;11.10;99.90;;;;;;5029482;28;20448;-53
2022/06/21 03:28:21;;;;;;;26.00;6.80;;;11.10;99.90;;;;;;5029909;28;20916;-52
2022/06/21 03:30:49;;;;;;;17.47;6.20;;;11.10;99.90;;;;;;5027870;28;20532;-52
2022/06/21 03:33:14;;;;;;;17.40;6.70;;;11.10;99.90;;;;;;5029591;28;20935;-53
2022/06/21 03:35:40;;;;;;;15.90;6.27;;;11.20;99.90;;;;;;5030407;28;20437;-52
2022/06/21 03:38:06;;;;;;;15.43;6.80;;;11.20;99.90;;;;;;5028854;28;20206;-52
2022/06/21 03:43:34;;;;;;;17.63;6.10;;;11.20;99.90;;;;;;5037992;28;20252;-52
2022/06/21 03:46:06;;;;;;;13.73;5.90;;;11.20;99.90;;;;;;5018960;28;20481;-52
2022/06/21 03:48:42;;;;;;;16.10;5.97;;;11.30;99.90;;;;;;5029527;28;20465;-53
2022/06/21 03:51:14;;;;;;;15.70;5.57;;;11.30;99.90;;;;;;5028834;28;20606;-52
2022/06/21 03:53:58;;;;;;;15.63;5.70;;;11.40;99.90;;;;;;5029717;28;20445;-53
2022/06/21 03:56:32;;;;;;;13.33;5.37;;;11.40;99.90;;;;;;5029713;28;20472;-52
2022/06/21 03:59:13;;;;;;;18.53;6.03;;;11.40;99.90;;;;;;5029503;28;20448;-53
2022/06/21 04:02:05;;;;;;;19.80;5.60;;;11.40;99.90;;;;;;5044102;28;20495;-52
2022/06/21 04:04:42;;;;;;;19.33;6.00;;;11.50;99.90;;;;;;5029368;28;20465;-52
2022/06/21 04:07:32;;;;;;;21.00;5.70;;;11.60;99.90;;;;;;5029018;28;20495;-52
2022/06/21 04:10:05;;;;;;;12.77;5.20;;;11.60;99.90;;;;;;5032798;28;20448;-52
2022/06/21 04:12:40;;;;;;;14.23;5.57;;;11.60;99.90;;;;;;5032091;28;20819;-52
2022/06/21 04:15:13;;;;;;;20.43;5.90;;;11.70;99.90;;;;;;5029612;28;20414;-53
2022/06/21 04:17:44;;;;;;;19.90;6.00;;;11.70;99.90;;;;;;5032666;28;20437;-53
2022/06/21 04:20:30;;;;;;;21.47;7.00;;;11.70;57.40;;;;;;5031889;28;20476;-52
2022/06/21 04:23:03;;;;;;;24.97;6.20;;;11.80;14.80;;;;;;5031826;28;20441;-53
2022/06/21 04:25:51;;;;;;;16.80;5.90;;;11.90;1.00;;;;;;5033701;28;20500;-52
2022/06/21 04:28:32;;;;;;;19.70;5.40;;;12.00;99.90;;;;;;5032342;28;20786;-53
2022/06/21 04:31:01;;;;;;;22.37;5.33;;;12.10;99.90;;;;;;5032011;28;20491;-53
2022/06/21 04:33:29;;;;;;;21.00;5.20;;;12.10;1.00;;;;;;5032755;28;20437;-53
2022/06/21 04:36:01;;;;;;;11.87;5.50;;;12.30;99.90;;;;;;5032438;28;21350;-53
2022/06/21 04:38:35;;;;;;;16.53;5.30;;;12.30;99.90;;;;;;5033096;28;20470;-53
2022/06/21 04:41:17;;;;;;;20.90;6.13;;;12.40;1.00;;;;;;5029168;28;20473;-52
2022/06/21 04:44:08;;;;;;;14.43;4.73;;;12.50;5.60;;;;;;5026125;28;20437;-53
2022/06/21 04:46:43;;;;;;;24.27;6.10;;;12.70;99.90;;;;;;5020057;28;20462;-53
2022/06/21 04:49:31;;;;;;;17.87;4.53;;;12.70;99.90;;;;;;5028133;28;21077;-53
2022/06/21 04:52:20;;;;;;;13.27;4.60;;;12.90;1.00;;;;;;5030269;28;20503;-53
2022/06/21 04:54:46;;;;;;;17.60;4.83;;;13.10;1.00;;;;;;5032123;28;20528;-53
2022/06/21 04:57:24;;;;;;;13.73;4.43;;;13.20;99.90;;;;;;5031798;28;21082;-52
2022/06/21 04:59:58;;;;;;;18.40;4.50;;;13.30;99.90;;;;;;5029957;28;20218;-53
2022/06/21 05:02:28;;;;;;;21.07;4.93;;;13.50;95.70;;;;;;5032097;28;20935;-54
2022/06/21 05:05:09;;;;;;;13.67;3.97;;;13.70;1.00;;;;;;5032779;28;20919;-53
2022/06/21 05:07:44;;;;;;;11.40;4.50;;;13.80;1.00;;;;;;5027076;28;20409;-53
2022/06/21 05:10:21;;;;;;;18.90;4.50;;;14.00;1.00;;;;;;5029378;28;20434;-54
2022/06/21 05:12:50;;;;;;;11.10;4.03;;;14.10;1.00;;;;;;5029697;28;20445;-53
2022/06/21 05:15:21;;;;;;;15.87;3.70;;;14.20;1.00;;;;;;5031501;28;20467;-54
2022/06/21 05:17:54;;;;;;;13.20;3.57;;;14.30;1.00;;;;;;5031891;28;20446;-54
2022/06/21 05:20:23;;;;;;;13.90;4.07;;;14.40;1.00;;;;;;5028595;28;20501;-52
2022/06/21 05:22:52;;;;;;;11.17;4.03;;;14.60;1.00;;;;;;5031879;28;20457;-52
2022/06/21 05:25:26;;;;;;;16.23;3.50;;;14.80;1.00;;;;;;5032709;28;20429;-53
2022/06/21 05:28:25;;;;;;;9.93;3.50;;;14.90;1.00;;;;;;5031264;28;20442;-53
2022/06/21 05:30:59;;;;;;;13.40;3.50;;;15.10;1.00;;;;;;5023856;28;20453;-53
2022/06/21 05:33:46;;;;;;;7.27;3.20;;;15.20;1.00;;;;;;5030178;28;20433;-54
2022/06/21 05:36:20;;;;;;;15.40;3.40;;;15.20;1.00;;;;;;5029742;28;20434;-53
2022/06/21 05:38:56;;;;;;;14.50;3.53;;;15.40;1.00;;;;;;5032400;28;20434;-53
2022/06/21 05:41:30;;;;;;;13.77;3.73;;;15.60;1.00;;;;;;5028431;28;20575;-53
2022/06/21 05:44:01;;;;;;;14.50;3.00;;;15.60;1.00;;;;;;5030566;28;20442;-54
2022/06/21 05:46:29;;;;;;;18.40;3.77;;;15.70;1.00;;;;;;5030011;28;20465;-53
2022/06/21 05:48:56;;;;;;;11.83;3.50;;;15.80;1.00;;;;;;5026325;28;20441;-52
2022/06/21 05:51:31;;;;;;;5.97;2.63;;;15.90;1.00;;;;;;5031478;28;20445;-52
2022/06/21 05:54:06;;;;;;;8.70;3.07;;;16.00;99.90;;;;;;5030539;28;20429;-52
2022/06/21 05:56:34;;;;;;;10.33;3.73;;;16.20;99.90;;;;;;5030797;28;20493;-52
2022/06/21 05:59:06;;;;;;;9.17;2.90;;;16.30;99.90;;;;;;5023520;28;20429;-52
2022/06/21 06:01:54;;;;;;;10.17;3.33;;;16.50;99.90;;;;;;5030305;28;20454;-52
2022/06/21 06:04:37;;;;;;;12.17;3.00;;;16.70;99.90;;;;;;5023796;28;20469;-52
2022/06/21 06:07:03;;;;;;;14.93;2.73;;;16.90;99.90;;;;;;5027944;28;20446;-52
2022/06/21 06:09:40;;;;;;;10.63;3.17;;;17.00;99.90;;;;;;5027864;28;20449;-52
2022/06/21 06:12:14;;;;;;;12.20;2.80;;;17.00;99.90;;;;;;5029174;28;20437;-52
2022/06/21 06:14:52;;;;;;;8.93;3.17;;;17.10;99.90;;;;;;5027585;28;21372;-52
2022/06/21 06:17:18;;;;;;;13.20;2.70;;;17.20;99.90;;;;;;5030442;28;20445;-52
2022/06/21 06:19:51;;;;;;;11.50;2.57;;;17.40;99.90;;;;;;5027721;28;20520;-52
2022/06/21 06:22:43;;;;;;;8.77;2.90;;;17.50;99.90;;;;;;5031791;28;20229;-52
2022/06/21 06:25:24;;;;;;;15.90;3.07;;;17.60;99.90;;;;;;5027913;28;20544;-52
2022/06/21 06:28:19;;;;;;;11.00;3.20;;;17.80;99.90;;;;;;5027888;28;20442;-52
2022/06/21 06:30:51;;;;;;;11.20;2.67;;;17.80;99.90;;;;;;5022652;28;21141;-52
2022/06/21 06:33:40;;;;;;;8.13;2.77;;;17.90;99.90;;;;;;5028889;28;20575;-51
2022/06/21 06:36:32;;;;;;;9.83;3.23;;;18.00;99.90;;;;;;5029122;28;20464;-52
2022/06/21 06:38:59;;;;;;;13.60;2.97;;;18.00;99.90;;;;;;5037389;28;20429;-52
2022/06/21 06:41:27;;;;;;;10.50;2.87;;;18.20;99.90;;;;;;5027399;28;20528;-51
2022/06/21 06:44:06;;;;;;;14.63;3.13;;;18.30;99.90;;;;;;5030821;28;20970;-54
2022/06/21 06:46:35;;;;;;;11.67;2.63;;;18.60;99.90;;;;;;5030375;28;20442;-54
2022/06/21 06:49:22;;;;;;;12.80;3.70;;;18.60;99.90;;;;;;5021993;28;21214;-54
2022/06/21 06:52:11;;;;;;;10.90;3.33;;;19.00;99.90;;;;;;5025968;28;20521;-53
2022/06/21 06:55:03;;;;;;;13.67;3.20;;;19.00;99.90;;;;;;5017104;28;20430;-54
2022/06/21 06:57:40;;;;;;;21.93;3.10;;;18.80;99.90;;;;;;5029923;28;20978;-54
2022/06/21 07:00:32;;;;;;;9.60;3.17;;;18.70;99.90;;;;;;5026201;28;20530;-54
2022/06/21 07:03:05;;;;;;;9.80;2.47;;;18.70;99.90;;;;;;5022918;28;20453;-55
2022/06/21 07:05:58;;;;;;;10.53;2.50;;;18.40;99.90;;;;;;5026012;28;20438;-54
2022/06/21 07:08:51;;;;;;;7.03;2.50;;;18.50;99.90;;;;;;5014006;28;20432;-54
2022/06/21 07:11:30;;;;;;;7.63;2.57;;;19.00;99.90;;;;;;5026787;28;20775;-54
2022/06/21 07:13:58;;;;;;;11.50;2.30;;;19.40;99.90;;;;;;5026069;28;20503;-55
2022/06/21 07:16:25;;;;;;;10.30;2.43;;;19.60;99.90;;;;;;5027306;28;20445;-53
2022/06/21 07:18:56;;;;;;;5.63;2.50;;;19.90;99.90;;;;;;5027006;28;20520;-58
2022/06/21 07:21:22;;;;;;;9.87;2.47;;;20.00;99.90;;;;;;5030667;28;20871;-54
2022/06/21 07:23:52;;;;;;;10.37;2.10;;;20.10;99.90;;;;;;5029218;28;20448;-53
2022/06/21 07:26:32;;;;;;;5.70;2.20;;;20.30;99.90;;;;;;5027410;28;20528;-54
2022/06/21 07:29:20;;;;;;;8.03;2.60;;;20.60;99.90;;;;;;5029992;28;20524;-55
2022/06/21 07:31:52;;;;;;;7.50;2.27;;;20.70;99.90;;;;;;5027461;28;20962;-55
2022/06/21 07:34:37;;;;;;;7.87;2.23;;;20.70;99.90;;;;;;5025251;28;20449;-54
2022/06/21 07:37:26;;;;;;;7.60;2.35;;;20.90;99.90;;;;;;5026636;28;20425;-54
2022/06/21 07:39:58;;;;;;;8.90;2.50;;;21.00;99.90;;;;;;5024665;28;20199;-53
2022/06/21 07:42:29;;;;;;;7.07;2.10;;;21.20;99.90;;;;;;5025625;28;20441;-54
2022/06/21 07:45:20;;;;;;;5.63;2.17;;;21.20;99.90;;;;;;5032826;28;20488;-53
2022/06/21 07:47:54;;;;;;;12.07;2.10;;;21.50;99.90;;;;;;5030183;28;20454;-54
2022/06/21 07:50:40;;;;;;;9.13;2.10;;;21.50;99.90;;;;;;5036487;28;21083;-54
2022/06/21 07:53:33;;;;;;;7.43;1.90;;;21.60;99.90;;;;;;5032937;28;20453;-65
2022/06/21 07:56:12;;;;;;;11.13;2.47;;;21.50;99.90;;;;;;5031439;28;20919;-54
2022/06/21 07:59:00;;;;;;;6.80;2.83;;;21.60;99.90;;;;;;5027593;28;20472;-54
2022/06/21 08:07:44;;;;;;;9.00;2.37;;;22.40;99.90;;;;;;5028256;28;20460;-55
2022/06/21 08:10:46;;;;;;;16.80;3.47;;;22.40;99.90;;;;;;5032442;28;20445;-55
2022/06/21 08:13:13;;;;;;;4.73;2.30;;;22.70;99.90;;;;;;5033561;28;20919;-56
2022/06/21 08:15:44;;;;;;;9.07;2.93;;;23.10;99.90;;;;;;5030683;28;20473;-55
2022/06/21 08:18:57;;;;;;;13.93;3.13;;;23.40;99.90;;;;;;5030827;28;20476;-55
2022/06/21 08:21:48;;;;;;;10.17;2.50;;;23.20;99.90;;;;;;5007472;28;20512;-55
2022/06/21 08:24:39;;;;;;;6.30;2.20;;;23.50;99.90;;;;;;5005698;28;20481;-55
2022/06/21 08:27:14;;;;;;;10.00;2.90;;;23.80;99.90;;;;;;5015351;28;20449;-60
2022/06/21 08:30:06;;;;;;;8.67;2.50;;;24.30;99.90;;;;;;5017075;28;20477;-52
2022/06/21 08:32:34;;;;;;;6.77;1.80;;;24.40;99.90;;;;;;5018023;28;20445;-56
2022/06/21 08:35:11;;;;;;;6.10;1.97;;;24.40;99.90;;;;;;5026111;28;20467;-54
2022/06/21 08:37:52;;;;;;;13.67;2.47;;;24.40;99.90;;;;;;5032667;28;20437;-56
2022/06/21 08:40:49;;;;;;;6.63;2.33;;;24.40;99.90;;;;;;5031725;28;20955;-55
2022/06/21 08:43:23;;;;;;;7.43;2.70;;;24.50;99.90;;;;;;5032635;28;20778;-55
2022/06/21 08:46:01;;;;;;;4.10;2.20;;;24.30;99.90;;;;;;5024447;28;20511;-55
2022/06/21 08:48:53;;;;;;;7.37;2.20;;;24.30;99.90;;;;;;5032035;28;20437;-56
2022/06/21 08:51:44;;;;;;;6.80;2.30;;;24.10;99.90;;;;;;5031957;28;20499;-54
2022/06/21 08:54:50;;;;;;;4.67;2.00;;;24.30;99.90;;;;;;5032177;28;20437;-55
2022/06/21 08:57:54;;;;;;;6.70;2.10;;;24.30;99.90;;;;;;5033442;28;20421;-56
2022/06/21 09:00:33;;;;;;;6.23;1.93;;;24.60;99.90;;;;;;5030998;28;20477;-57
2022/06/21 09:03:24;;;;;;;2.43;1.77;;;24.60;99.90;;;;;;5028627;28;21201;-55
2022/06/21 09:06:12;;;;;;;5.43;1.90;;;24.50;99.90;;;;;;5030239;28;20445;-56
2022/06/21 09:09:05;;;;;;;3.93;1.97;;;24.30;99.90;;;;;;5029759;28;21230;-55
2022/06/21 09:11:49;;;;;;;3.60;1.90;;;24.60;99.90;;;;;;5029365;28;20567;-55
2022/06/21 09:14:31;;;;;;;6.77;2.00;;;25.00;99.90;;;;;;5026629;28;20417;-55
2022/06/21 09:17:00;;;;;;;9.20;2.13;;;25.60;99.90;;;;;;5032307;28;20437;-55
2022/06/21 09:19:44;;;;;;;4.93;1.87;;;25.60;99.90;;;;;;5032826;28;21316;-55
2022/06/21 09:22:19;;;;;;;3.13;1.70;;;24.80;99.90;;;;;;5031957;28;20433;-54
2022/06/21 09:25:07;;;;;;;6.13;2.00;;;24.60;99.90;;;;;;5031681;28;20426;-55
2022/06/21 09:27:33;;;;;;;8.90;2.93;;;24.40;99.90;;;;;;5030214;28;20495;-56
2022/06/21 09:30:08;;;;;;;5.20;2.30;;;24.70;99.90;;;;;;5031914;28;20422;-56
2022/06/21 09:32:41;;;;;;;5.43;2.00;;;25.00;99.90;;;;;;5032538;28;20273;-55
2022/06/21 09:35:30;;;;;;;7.30;2.43;;;25.20;99.90;;;;;;5029767;28;20636;-55
2022/06/21 09:38:10;;;;;;;7.13;2.47;;;24.60;99.90;;;;;;5032601;28;20410;-58
2022/06/21 09:40:50;;;;;;;9.70;2.10;;;23.80;99.90;;;;;;5032086;28;20461;-55
2022/06/21 09:43:28;;;;;;;8.70;2.60;;;23.40;99.90;;;;;;5032208;28;20483;-56
2022/06/21 09:46:22;;;;;;;6.20;2.00;;;23.30;99.90;;;;;;5025858;28;20501;-55
2022/06/21 09:49:08;;;;;;;6.30;2.10;;;23.70;99.90;;;;;;5044210;28;20435;-56
2022/06/21 09:51:54;;;;;;;4.33;1.80;;;24.30;99.90;;;;;;5025486;28;20528;-55
2022/06/21 09:54:37;;;;;;;8.20;1.97;;;25.20;99.90;;;;;;5027875;28;20432;-56
2022/06/21 09:57:25;;;;;;;3.20;1.60;;;24.90;99.90;;;;;;5032304;28;20876;-55
2022/06/21 10:00:13;;;;;;;5.33;1.70;;;24.90;99.90;;;;;;5031551;28;20496;-55
2022/06/21 10:03:10;;;;;;;2.53;1.60;;;25.00;99.90;;;;;;5027452;28;20501;-56
2022/06/21 10:06:23;;;;;;;6.53;2.10;;;25.60;99.90;;;;;;5031614;28;20453;-55
2022/06/21 10:09:01;;;;;;;5.13;1.80;;;25.70;99.90;;;;;;5016970;28;20434;-56
2022/06/21 10:11:44;;;;;;;7.83;1.80;;;26.10;99.90;;;;;;5032029;28;20421;-52
2022/06/21 10:14:15;;;;;;;4.27;1.83;;;26.60;99.90;;;;;;5024511;28;20414;-52
2022/06/21 10:17:14;;;;;;;7.90;1.73;;;27.00;99.90;;;;;;5031826;28;20477;-52
2022/06/21 10:20:13;;;;;;;7.07;2.00;;;27.30;99.90;;;;;;5028022;28;22322;-52
2022/06/21 10:23:03;;;;;;;4.53;1.93;;;27.90;99.90;;;;;;5027668;28;20935;-52
2022/06/21 10:25:49;;;;;;;3.73;1.80;;;28.10;99.90;;;;;;5024733;28;20529;-52
2022/06/21 10:28:46;;;;;;;3.17;1.60;;;27.90;99.90;;;;;;5028981;28;20448;-52
2022/06/21 10:31:34;;;;;;;5.53;1.80;;;27.20;99.90;;;;;;5026744;28;20442;-52
2022/06/21 10:34:37;;;;;;;3.77;1.90;;;26.70;99.90;;;;;;5030298;28;20452;-56
2022/06/21 10:37:48;;;;;;;5.20;1.90;;;26.60;99.90;;;;;;5031552;28;20433;-52
2022/06/21 10:40:37;;;;;;;7.90;1.77;;;27.10;99.90;;;;;;5029468;28;20469;-52
2022/06/21 10:43:30;;;;;;;3.70;1.70;;;27.60;99.90;;;;;;5028888;28;20433;-52
2022/06/21 10:46:03;;;;;;;4.13;1.90;;;27.40;99.90;;;;;;5026620;28;20569;-52
2022/06/21 10:48:40;;;;;;;7.30;2.13;;;26.70;99.90;;;;;;5027045;28;20508;-52
2022/06/21 10:51:25;;;;;;;4.50;2.40;;;26.10;99.90;;;;;;5025259;28;20445;-52
2022/06/21 10:54:16;;;;;;;4.10;1.70;;;25.10;99.90;;;;;;5039083;28;20915;-52
2022/06/21 10:57:09;;;;;;;7.10;2.20;;;25.10;99.90;;;;;;5028960;28;20510;-52
2022/06/21 11:02:54;;;;;;;5.87;2.70;;;27.10;99.90;;;;;;5028458;28;20448;-52
2022/06/21 11:05:28;;;;;;;6.53;2.00;;;28.00;99.90;;;;;;5027138;28;20451;-52
2022/06/21 11:08:20;;;;;;;6.73;3.03;;;27.90;99.90;;;;;;5025579;28;20445;-52
2022/06/21 11:11:12;;;;;;;12.13;3.63;;;28.00;99.90;;;;;;5023020;28;20534;-52
2022/06/21 11:13:52;;;;;;;8.37;2.80;;;28.10;99.90;;;;;;5003946;28;20450;-52
2022/06/21 11:16:29;;;;;;;7.77;2.77;;;27.00;99.90;;;;;;5027775;28;20504;-52
2022/06/21 11:19:11;;;;;;;8.87;1.90;;;26.70;99.90;;;;;;5024985;28;20444;-53
2022/06/21 11:21:37;;;;;;;6.10;2.00;;;27.10;99.90;;;;;;5028603;28;20536;-52
2022/06/21 11:24:27;;;;;;;5.17;2.07;;;27.70;99.90;;;;;;5023692;28;20464;-51
2022/06/21 11:27:14;;;;;;;4.10;2.17;;;28.60;99.90;;;;;;5029614;28;20182;-52
2022/06/21 11:29:58;;;;;;;2.80;1.90;;;28.20;99.90;;;;;;5027878;28;20445;-52
2022/06/21 11:33:04;;;;;;;3.60;2.20;;;27.60;99.90;;;;;;5015914;28;20588;-51
2022/06/21 11:35:38;;;;;;;2.53;1.63;;;27.70;99.90;;;;;;5028208;28;20441;-52
2022/06/21 11:38:19;;;;;;;5.83;2.27;;;27.80;99.90;;;;;;5028788;28;20441;-51
2022/06/21 11:40:49;;;;;;;3.60;2.60;;;26.70;99.90;;;;;;5023499;28;20473;-51
2022/06/21 11:43:37;;;;;;;4.50;2.50;;;26.60;99.90;;;;;;5026926;28;20504;-54
2022/06/21 11:46:12;;;;;;;6.10;2.00;;;26.30;99.90;;;;;;5025884;28;20474;-51
2022/06/21 11:48:56;;;;;;;6.20;2.33;;;25.70;99.90;;;;;;5023740;28;20503;-51
2022/06/21 11:51:24;;;;;;;4.20;2.10;;;25.70;99.90;;;;;;5028665;28;20449;-51
2022/06/21 11:54:22;;;;;;;5.83;1.93;;;26.10;99.90;;;;;;5030288;28;20948;-51
2022/06/21 11:57:17;;;;;;;3.93;2.00;;;26.60;99.90;;;;;;5028775;28;20443;-52
2022/06/21 12:00:30;;;;;;;4.83;1.80;;;27.20;99.90;;;;;;5028548;28;20473;-51
2022/06/21 12:03:02;;;;;;;2.47;1.60;;;26.60;99.90;;;;;;5021011;28;20445;-51
2022/06/21 12:05:53;;;;;;;6.90;2.40;;;26.00;99.90;;;;;;5023029;28;20442;-51
2022/06/21 12:08:54;;;;;;;7.23;2.43;;;26.80;99.90;;;;;;5022927;28;20441;-52
2022/06/21 12:11:37;;;;;;;5.60;2.13;;;27.70;99.90;;;;;;5027239;28;20453;-52
2022/06/21 12:14:23;;;;;;;6.73;2.10;;;28.30;99.90;;;;;;5030059;28;20463;-55
2022/06/21 12:17:18;;;;;;;3.27;1.97;;;29.00;99.90;;;;;;5025180;28;20518;-55
2022/06/21 12:19:46;;;;;;;4.37;2.07;;;29.60;99.90;;;;;;5030322;28;20466;-56
2022/06/21 12:22:34;;;;;;;5.57;2.00;;;28.90;99.90;;;;;;5028419;28;20453;-56
2022/06/21 12:25:00;;;;;;;7.03;2.33;;;28.00;99.90;;;;;;5025943;28;20523;-56
2022/06/21 12:27:26;;;;;;;8.00;2.00;;;27.30;99.90;;;;;;5039985;28;20847;-56
2022/06/21 12:30:00;;;;;;;4.97;2.00;;;27.00;99.90;;;;;;5030516;28;20756;-55
2022/06/21 12:32:27;;;;;;;8.70;2.43;;;26.50;99.90;;;;;;5028774;28;20285;-55
2022/06/21 12:35:07;;;;;;;4.00;2.17;;;25.70;99.90;;;;;;5031751;28;20449;-56
2022/06/21 12:37:42;;;;;;;7.93;2.13;;;25.10;99.90;;;;;;5028321;28;20438;-56
2022/06/21 12:40:18;;;;;;;7.40;2.30;;;25.50;99.90;;;;;;5031528;28;20468;-59
2022/06/21 12:42:54;;;;;;;2.73;2.13;;;26.20;99.90;;;;;;5033442;28;20444;-56
2022/06/21 12:45:42;;;;;;;5.90;2.40;;;26.70;99.90;;;;;;5028744;28;20520;-55
2022/06/21 12:48:45;;;;;;;3.20;1.80;;;26.70;99.90;;;;;;5031468;28;21240;-56
2022/06/21 12:51:29;;;;;;;3.23;1.80;;;25.90;99.90;;;;;;5048302;28;20544;-56
2022/06/21 12:54:18;;;;;;;4.57;2.33;;;25.20;99.90;;;;;;5025456;28;20521;-56
2022/06/21 12:57:19;;;;;;;2.63;1.93;;;25.40;99.90;;;;;;5030881;28;20446;-56
2022/06/21 12:59:51;;;;;;;2.83;1.70;;;25.10;99.90;;;;;;5029306;28;20465;-56
2022/06/21 13:02:35;;;;;;;5.00;2.07;;;25.60;99.90;;;;;;5031365;28;20519;-55
2022/06/21 13:05:33;;;;;;;3.73;2.20;;;26.50;99.90;;;;;;5030490;28;20445;-58
2022/06/21 13:08:18;;;;;;;4.97;2.13;;;27.40;99.90;;;;;;5031908;28;20442;-55
2022/06/21 13:11:15;;;;;;;3.23;2.10;;;27.70;99.90;;;;;;5033260;28;20413;-55
2022/06/21 13:14:22;;;;;;;2.53;2.30;;;27.50;99.90;;;;;;5019718;28;20468;-55
2022/06/21 13:17:02;;;;;;;3.40;2.27;;;27.70;99.90;;;;;;5030571;28;20472;-56
2022/06/21 13:19:58;;;;;;;3.57;1.93;;;27.70;99.90;;;;;;5032035;28;20990;-55
2022/06/21 13:23:00;;;;;;;5.57;2.23;;;27.30;99.90;;;;;;5031985;28;20426;-55
2022/06/21 13:25:34;;;;;;;3.63;1.97;;;27.80;99.90;;;;;;5029110;28;20429;-55
2022/06/21 13:28:25;;;;;;;4.00;1.90;;;28.20;99.90;;;;;;5031060;28;20922;-54
2022/06/21 13:31:00;;;;;;;3.00;1.83;;;27.70;99.90;;;;;;5025331;28;20444;-55
2022/06/21 13:33:37;;;;;;;5.27;1.97;;;26.80;99.90;;;;;;5032413;28;20880;-55
2022/06/21 13:36:36;;;;;;;3.97;1.90;;;25.80;99.90;;;;;;5032547;28;20409;-54
2022/06/21 13:39:14;;;;;;;8.27;2.30;;;25.80;99.90;;;;;;5032808;28;20420;-56
2022/06/21 13:44:37;;;;;;;2.80;1.70;;;27.30;99.90;;;;;;5027003;28;20500;-55
2022/06/21 13:47:20;;;;;;;7.47;2.07;;;28.10;99.90;;;;;;5029073;28;20417;-56
2022/06/21 13:49:57;;;;;;;2.10;1.73;;;28.70;99.90;;;;;;5031682;28;20484;-54
2022/06/21 13:52:42;;;;;;;4.93;2.10;;;28.50;99.90;;;;;;5032254;28;20426;-57
2022/06/21 13:55:46;;;;;;;3.00;1.50;;;28.40;99.90;;;;;;5031717;28;20437;-58
2022/06/21 13:58:37;;;;;;;7.40;2.40;;;28.80;99.90;;;;;;5031853;28;20429;-55